Time;durP1;ratioP1;P1;durP2;ratioP2;P2;SDS_P1;SDS_P2;PMS_P1;PMS_P2;Temp;Humidity;BMP_temperature;BMP_pressure;BME280_temperature;BME280_humidity;BME280_pressure;Samples;Min_cycle;Max_cycle;Signal;HPM_P1;HPM_P2
2022/05/21 00:05:41;;;;;;;;;;;25.70;38.50;;;;;;21079738;28;19990;-60
2022/05/21 00:15:44;;;;;;;;;;;25.70;38.70;;;;;;21079106;28;19950;-61
2022/05/21 00:25:49;;;;;;;;;;;25.60;38.70;;;;;;21078029;28;20221;-60
2022/05/21 00:35:51;;;;;;;;;;;;;;;;;;21078010;28;19924;-61
2022/05/21 00:45:52;;;;;;;;;;;;;;;;;;21080490;28;20027;-60
2022/05/21 00:55:54;;;;;;;;;;;;;;;;;;21090698;28;19932;-60
2022/05/21 01:05:56;;;;;;;;;;;;;;;;;;21083572;28;19932;-61
2022/05/21 01:15:58;;;;;;;;;;;;;;;;;;21095858;28;19924;-60
2022/05/21 01:26:01;;;;;;;;;;;;;;;;;;21093724;28;20376;-62
2022/05/21 01:36:06;;;;;;;;;;;;;;;;;;21091575;28;19928;-68
2022/05/21 01:46:12;;;;;;;;;;;26.10;38.40;;;;;;21089377;28;20321;-66
2022/05/21 01:56:22;;;;;;;;;;;;;;;;;;21089204;28;20383;-68
2022/05/21 02:06:28;;;;;;;;;;;;;;;;;;21087919;28;19924;-68
2022/05/21 02:16:34;;;;;;;;;;;;;;;;;;21087568;28;19928;-62
2022/05/21 02:26:39;;;;;;;;;;;;;;;;;;21087188;28;20299;-66
2022/05/21 02:47:04;;;;;;;;;;;;;;;;;;21084727;28;19931;-65
2022/05/21 02:57:06;;;;;;;;;;;;;;;;;;21084416;28;19928;-64
2022/05/21 03:07:08;;;;;;;;;;;25.20;39.20;;;;;;21084509;28;20334;-65
2022/05/21 03:17:12;;;;;;;;;;;;;;;;;;21081623;28;20065;-66
2022/05/21 03:27:14;;;;;;;;;;;24.90;40.00;;;;;;21082530;28;19924;-67
2022/05/21 03:37:17;;;;;;;;;;;;;;;;;;21081779;28;19953;-59
2022/05/21 03:47:19;;;;;;;;;;;;;;;;;;21080907;28;19939;-67
2022/05/21 03:57:22;;;;;;;;;;;;;;;;;;21080941;28;20567;-67
2022/05/21 04:07:24;;;;;;;;;;;;;;;;;;21090809;28;20393;-60
2022/05/21 04:17:26;;;;;;;;;;;;;;;;;;21075308;28;20423;-62
2022/05/21 04:27:29;;;;;;;;;;;;;;;;;;21063678;28;20020;-66
2022/05/21 04:37:32;;;;;;;;;;;;;;;;;;21095487;28;20468;-62
2022/05/21 04:47:33;;;;;;;;;;;;;;;;;;21096004;28;20373;-63
2022/05/21 04:57:35;;;;;;;;;;;;;;;;;;21096539;28;19932;-61
2022/05/21 05:07:37;;;;;;;;;;;;;;;;;;21094882;28;20015;-62
2022/05/21 05:17:39;;;;;;;;;;;23.70;43.10;;;;;;21092979;28;19931;-61
2022/05/21 05:27:41;;;;;;;;;;;22.90;45.20;;;;;;21092316;28;19928;-60
2022/05/21 05:37:43;;;;;;;;;;;;;;;;;;21090394;28;20454;-63
2022/05/21 05:47:44;;;;;;;;;;;23.10;45.50;;;;;;21089636;28;19924;-61
2022/05/21 05:57:46;;;;;;;;;;;;;;;;;;21089369;28;19928;-62
2022/05/21 06:07:48;;;;;;;;;;;;;;;;;;21089689;28;19924;-67
2022/05/21 06:17:51;;;;;;;;;;;;;;;;;;21088741;28;20436;-60
2022/05/21 06:27:54;;;;;;;;;;;;;;;;;;21103283;28;19924;-60
2022/05/21 06:37:56;;;;;;;;;;;;;;;;;;21086123;28;20438;-60
2022/05/21 06:47:58;;;;;;;;;;;;;;;;;;21085332;28;19924;-62
2022/05/21 06:58:00;;;;;;;;;;;;;;;;;;21084190;28;19925;-60
2022/05/21 07:08:02;;;;;;;;;;;;;;;;;;21084835;28;20273;-60
2022/05/21 07:18:04;;;;;;;;;;;25.70;37.20;;;;;;21082329;28;19935;-68
2022/05/21 07:28:07;;;;;;;;;;;24.90;38.20;;;;;;21083092;28;19964;-69
2022/05/21 07:38:10;;;;;;;;;;;25.80;36.60;;;;;;21081300;28;19970;-67
2022/05/21 07:48:13;;;;;;;;;;;;;;;;;;21081320;28;20395;-65
2022/05/21 07:58:15;;;;;;;;;;;;;;;;;;21080867;28;20019;-66
2022/05/21 08:08:17;;;;;;;;;;;;;;;;;;21079420;28;19992;-68
2022/05/21 08:18:19;;;;;;;;;;;;;;;;;;21078365;28;19931;-69
2022/05/21 08:28:21;;;;;;;;;;;;;;;;;;21078437;28;20331;-63
2022/05/21 08:38:23;;;;;;;;;;;;;;;;;;21094528;28;20368;-67
2022/05/21 08:48:24;;;;;;;;;;;;;;;;;;21077483;28;19933;-63
2022/05/21 08:58:27;;;;;;;;;;;;;;;;;;21077606;28;19928;-68
2022/05/21 09:08:28;;;;;;;;;;;;;;;;;;21076744;28;20007;-67
2022/05/21 09:18:30;;;;;;;;;;;;;;;;;;21087723;28;20015;-67
2022/05/21 09:28:37;;;;;;;;;;;;;;;;;;21091226;28;20026;-67
2022/05/21 09:38:39;;;;;;;;;;;;;;;;;;21089620;28;20016;-67
2022/05/21 09:48:41;;;;;;;;;;;;;;;;;;21088991;28;19931;-66
2022/05/21 09:58:44;;;;;;;;;;;;;;;;;;21088225;28;19979;-61
2022/05/21 10:19:06;;;;;;;;;;;;;;;;;;21055737;28;19928;-59
2022/05/21 10:29:10;;;;;;;;;;;;;;;;;;21062432;28;19929;-63
2022/05/21 10:39:12;;;;;;;;;;;;;;;;;;21060555;28;20356;-57
2022/05/21 10:49:14;;;;;;;;;;;;;;;;;;21062490;28;19935;-66
2022/05/21 10:59:16;;;;;;;;;;;;;;;;;;21056150;28;19927;-64
2022/05/21 11:09:18;;;;;;;;;;;;;;;;;;21051068;28;19927;-63
2022/05/21 11:19:20;;;;;;;;;;;;;;;;;;21054479;28;19925;-62
2022/05/21 11:29:35;;;;;;;;;;;31.90;26.60;;;;;;21051420;28;20423;-60
2022/05/21 11:39:39;;;;;;;;;;;;;;;;;;21072788;28;20027;-62
2022/05/21 11:49:53;;;;;;;;;;;32.20;26.20;;;;;;21080271;28;19959;-59
2022/05/21 11:59:55;;;;;;;;;;;31.30;25.70;;;;;;21080160;28;19924;-58
2022/05/21 12:09:58;;;;;;;;;;;31.70;26.60;;;;;;21079185;28;19928;-59
2022/05/21 12:20:01;;;;;;;;;;;;;;;;;;21080007;28;20425;-63
2022/05/21 12:30:04;;;;;;;;;;;33.10;24.10;;;;;;21077572;28;19924;-63
2022/05/21 12:40:05;;;;;;;;;;;;;;;;;;21077342;28;19946;-70
2022/05/21 12:50:07;;;;;;;;;;;;;;;;;;21081917;28;20007;-66
2022/05/21 13:00:09;;;;;;;;;;;;;;;;;;21095153;28;20043;-76
2022/05/21 13:10:11;;;;;;;;;;;;;;;;;;21073917;28;19935;-62
2022/05/21 13:20:15;;;;;;;;;;;;;;;;;;21092143;28;20058;-63
2022/05/21 13:30:17;;;;;;;;;;;;;;;;;;21091861;28;20018;-62
2022/05/21 13:40:19;;;;;;;;;;;;;;;;;;21089598;28;20376;-64
2022/05/21 13:50:21;;;;;;;;;;;;;;;;;;21088835;28;20038;-66
2022/05/21 14:00:23;;;;;;;;;;;;;;;;;;21081285;28;19932;-70
2022/05/21 14:10:25;;;;;;;;;;;;;;;;;;21087679;28;19931;-64
2022/05/21 14:20:27;;;;;;;;;;;;;;;;;;21087555;28;20023;-65
2022/05/21 14:30:29;;;;;;;;;;;;;;;;;;21086025;28;19931;-65
2022/05/21 14:40:30;;;;;;;;;;;;;;;;;;21085551;28;20389;-63
2022/05/21 15:00:52;;;;;;;;;;;;;;;;;;21085109;28;19924;-64
2022/05/21 15:10:54;;;;;;;;;;;;;;;;;;21082876;28;19931;-62
2022/05/21 15:20:57;;;;;;;;;;;;;;;;;;21088905;28;19924;-64
2022/05/21 15:30:59;;;;;;;;;;;;;;;;;;21081979;28;19923;-62
2022/05/21 15:41:01;;;;;;;;;;;;;;;;;;21080670;28;19935;-62
2022/05/21 15:51:04;;;;;;;;;;;;;;;;;;21079968;28;20010;-63
2022/05/21 16:01:05;;;;;;;;;;;;;;;;;;21078330;28;19946;-62
2022/05/21 16:11:07;;;;;;;;;;;;;;;;;;21078989;28;19936;-61
2022/05/21 16:21:09;;;;;;;;;;;;;;;;;;21077396;28;20023;-64
2022/05/21 16:31:11;;;;;;;;;;;;;;;;;;21077204;28;19928;-63
2022/05/21 16:41:13;;;;;;;;;;;;;;;;;;21076562;28;19975;-63
2022/05/21 16:51:15;;;;;;;;;;;;;;;;;;21076054;28;20372;-63
2022/05/21 17:01:17;;;;;;;;;;;;;;;;;;21076719;28;19928;-63
2022/05/21 17:11:19;;;;;;;;;;;;;;;;;;21076086;28;19939;-61
2022/05/21 17:21:22;;;;;;;;;;;;;;;;;;21075506;28;20425;-61
2022/05/21 17:31:24;;;;;;;;;;;;;;;;;;21074872;28;19925;-63
2022/05/21 17:41:26;;;;;;;;;;;;;;;;;;21089336;28;19924;-63
2022/05/21 17:51:28;;;;;;;;;;;;;;;;;;21095015;28;19995;-65
2022/05/21 18:01:30;;;;;;;;;;;;;;;;;;21104642;28;19993;-64
2022/05/21 18:11:31;;;;;;;;;;;;;;;;;;21088443;28;19924;-64
2022/05/21 18:21:35;;;;;;;;;;;;;;;;;;21086235;28;19924;-64
2022/05/21 18:31:37;;;;;;;;;;;;;;;;;;21087018;28;19924;-64
2022/05/21 18:41:40;;;;;;;;;;;;;;;;;;21087819;28;19931;-64
2022/05/21 18:51:42;;;;;;;;;;;;;;;;;;21085890;28;20432;-64
2022/05/21 19:01:44;;;;;;;;;;;;;;;;;;21084313;28;19924;-64
2022/05/21 19:11:46;;;;;;;;;;;;;;;;;;21082311;28;20001;-63
2022/05/21 19:21:48;;;;;;;;;;;;;;;;;;21081533;28;19924;-63
2022/05/21 19:31:50;;;;;;;;;;;;;;;;;;21080957;28;19931;-65
2022/05/21 19:41:52;;;;;;;;;;;;;;;;;;21079641;28;20018;-63
2022/05/21 19:51:54;;;;;;;;;;;;;;;;;;21079285;28;19949;-64
2022/05/21 20:01:56;;;;;;;;;;;;;;;;;;21078690;28;20409;-64
2022/05/21 20:11:57;;;;;;;;;;;;;;;;;;21078204;28;19924;-61
2022/05/21 20:21:59;;;;;;;;;;;;;;;;;;21078088;28;20419;-64
2022/05/21 20:32:01;;;;;;;;;;;;;;;;;;21077296;28;19977;-65
2022/05/21 20:42:04;;;;;;;;;;;;;;;;;;21076579;28;20330;-62
2022/05/21 20:52:06;;;;;;;;;;;;;;;;;;21078029;28;20023;-65
2022/05/21 21:02:08;;;;;;;;;;;;;;;;;;21077594;28;20376;-63
2022/05/21 21:12:10;;;;;;;;;;;;;;;;;;21084234;28;19970;-63
2022/05/21 21:22:12;;;;;;;;;;;;;;;;;;21093198;28;19924;-62
2022/05/21 21:32:14;;;;;;;;;;;;;;;;;;21107354;28;20384;-62
2022/05/21 21:42:16;;;;;;;;;;;;;;;;;;21091283;28;19924;-63
2022/05/21 21:52:18;;;;;;;;;;;;;;;;;;21090413;28;19935;-62
2022/05/21 22:02:20;;;;;;;;;;;;;;;;;;21089823;28;19931;-63
2022/05/21 22:12:22;;;;;;;;;;;;;;;;;;21091333;28;19924;-61
2022/05/21 22:22:24;;;;;;;;;;;;;;;;;;21092254;28;20365;-63
2022/05/21 22:32:26;;;;;;;;;;;;;;;;;;21089504;28;20429;-61
2022/05/21 22:42:27;;;;;;;;;;;;;;;;;;21087139;28;20436;-62
2022/05/21 22:52:29;;;;;;;;;;;;;;;;;;21091322;28;19924;-63
2022/05/21 23:02:31;;;;;;;;;;;;;;;;;;21094708;28;19945;-64
2022/05/21 23:12:33;;;;;;;;;;;;;;;;;;21085423;28;19924;-66
2022/05/21 23:22:36;;;;;;;;;;;;;;;;;;21083876;28;19932;-63
2022/05/21 23:32:38;;;;;;;;;;;;;;;;;;21082978;28;20003;-63
2022/05/21 23:42:43;;;;;;;;;;;;;;;;;;21081580;28;20027;-63
2022/05/21 23:52:45;;;;;;;;;;;;;;;;;;21083784;28;20382;-64
